sensor_id;sensor_type;location;lat;lon;timestamp;P1;durP1;ratioP1;P2;durP2;ratioP2
7316;SDS011;3699;51.462;6.696;2023-07-31T00:01:37;10.33;;;5.37;;
7316;SDS011;3699;51.462;6.696;2023-07-31T00:04:05;12.07;;;5.30;;
7316;SDS011;3699;51.462;6.696;2023-07-31T00:06:32;11.17;;;5.43;;
7316;SDS011;3699;51.462;6.696;2023-07-31T00:08:58;12.03;;;5.53;;
7316;SDS011;3699;51.462;6.696;2023-07-31T00:11:25;11.00;;;5.53;;
7316;SDS011;3699;51.462;6.696;2023-07-31T00:13:52;11.37;;;5.93;;
7316;SDS011;3699;51.462;6.696;2023-07-31T00:16:19;15.13;;;5.73;;
7316;SDS011;3699;51.462;6.696;2023-07-31T00:18:46;8.90;;;5.37;;
7316;SDS011;3699;51.462;6.696;2023-07-31T00:21:15;14.30;;;5.60;;
7316;SDS011;3699;51.462;6.696;2023-07-31T00:23:42;17.33;;;5.57;;
7316;SDS011;3699;51.462;6.696;2023-07-31T00:26:09;13.53;;;5.37;;
7316;SDS011;3699;51.462;6.696;2023-07-31T00:28:35;13.57;;;5.63;;
7316;SDS011;3699;51.462;6.696;2023-07-31T00:31:02;11.53;;;5.47;;
7316;SDS011;3699;51.462;6.696;2023-07-31T00:33:29;14.63;;;6.30;;
7316;SDS011;3699;51.462;6.696;2023-07-31T00:35:57;12.10;;;5.70;;
7316;SDS011;3699;51.462;6.696;2023-07-31T00:38:25;15.70;;;6.03;;
7316;SDS011;3699;51.462;6.696;2023-07-31T00:40:52;17.83;;;6.30;;
7316;SDS011;3699;51.462;6.696;2023-07-31T00:43:18;15.53;;;7.00;;
7316;SDS011;3699;51.462;6.696;2023-07-31T00:45:45;16.60;;;6.10;;
7316;SDS011;3699;51.462;6.696;2023-07-31T00:48:12;16.33;;;5.70;;
7316;SDS011;3699;51.462;6.696;2023-07-31T00:50:39;12.13;;;5.80;;
7316;SDS011;3699;51.462;6.696;2023-07-31T00:53:06;27.27;;;6.87;;
7316;SDS011;3699;51.462;6.696;2023-07-31T00:55:34;13.60;;;5.80;;
7316;SDS011;3699;51.462;6.696;2023-07-31T00:58:01;12.37;;;5.73;;
7316;SDS011;3699;51.462;6.696;2023-07-31T01:00:28;11.30;;;6.13;;
7316;SDS011;3699;51.462;6.696;2023-07-31T01:02:54;18.33;;;7.03;;
7316;SDS011;3699;51.462;6.696;2023-07-31T01:05:23;12.37;;;4.93;;
7316;SDS011;3699;51.462;6.696;2023-07-31T01:07:56;24.47;;;6.57;;
7316;SDS011;3699;51.462;6.696;2023-07-31T01:10:33;12.77;;;6.20;;
7316;SDS011;3699;51.462;6.696;2023-07-31T01:13:07;14.60;;;5.33;;
7316;SDS011;3699;51.462;6.696;2023-07-31T01:15:35;18.57;;;6.70;;
7316;SDS011;3699;51.462;6.696;2023-07-31T01:18:03;12.00;;;5.40;;
7316;SDS011;3699;51.462;6.696;2023-07-31T01:20:30;11.33;;;5.13;;
7316;SDS011;3699;51.462;6.696;2023-07-31T01:23:15;12.20;;;5.40;;
7316;SDS011;3699;51.462;6.696;2023-07-31T01:25:57;13.23;;;6.37;;
7316;SDS011;3699;51.462;6.696;2023-07-31T01:28:30;13.40;;;6.27;;
7316;SDS011;3699;51.462;6.696;2023-07-31T01:31:05;13.20;;;5.00;;
7316;SDS011;3699;51.462;6.696;2023-07-31T01:33:36;15.57;;;5.00;;
7316;SDS011;3699;51.462;6.696;2023-07-31T01:36:04;15.20;;;5.00;;
7316;SDS011;3699;51.462;6.696;2023-07-31T01:38:31;11.40;;;5.63;;
7316;SDS011;3699;51.462;6.696;2023-07-31T01:40:59;13.20;;;5.27;;
7316;SDS011;3699;51.462;6.696;2023-07-31T01:43:26;14.53;;;5.20;;
7316;SDS011;3699;51.462;6.696;2023-07-31T01:45:52;8.97;;;4.83;;
7316;SDS011;3699;51.462;6.696;2023-07-31T01:48:19;16.97;;;5.93;;
7316;SDS011;3699;51.462;6.696;2023-07-31T01:50:46;12.00;;;5.50;;
7316;SDS011;3699;51.462;6.696;2023-07-31T01:53:13;12.83;;;5.10;;
7316;SDS011;3699;51.462;6.696;2023-07-31T01:55:40;13.63;;;5.87;;
7316;SDS011;3699;51.462;6.696;2023-07-31T01:58:08;10.20;;;4.83;;
7316;SDS011;3699;51.462;6.696;2023-07-31T02:00:35;10.87;;;5.23;;
7316;SDS011;3699;51.462;6.696;2023-07-31T02:03:01;11.00;;;5.00;;
7316;SDS011;3699;51.462;6.696;2023-07-31T02:05:28;14.17;;;6.17;;
7316;SDS011;3699;51.462;6.696;2023-07-31T02:07:55;12.80;;;5.17;;
7316;SDS011;3699;51.462;6.696;2023-07-31T02:10:22;14.00;;;5.60;;
7316;SDS011;3699;51.462;6.696;2023-07-31T02:12:49;13.47;;;5.03;;
7316;SDS011;3699;51.462;6.696;2023-07-31T02:15:17;14.87;;;5.37;;
7316;SDS011;3699;51.462;6.696;2023-07-31T02:17:44;13.40;;;5.27;;
7316;SDS011;3699;51.462;6.696;2023-07-31T02:20:11;18.23;;;6.40;;
7316;SDS011;3699;51.462;6.696;2023-07-31T02:22:38;14.33;;;5.23;;
7316;SDS011;3699;51.462;6.696;2023-07-31T02:25:04;15.10;;;5.90;;
7316;SDS011;3699;51.462;6.696;2023-07-31T02:27:31;14.90;;;5.37;;
7316;SDS011;3699;51.462;6.696;2023-07-31T02:29:58;20.30;;;6.53;;
7316;SDS011;3699;51.462;6.696;2023-07-31T02:32:27;13.53;;;4.73;;
7316;SDS011;3699;51.462;6.696;2023-07-31T02:34:53;15.60;;;5.90;;
7316;SDS011;3699;51.462;6.696;2023-07-31T02:37:20;15.33;;;5.37;;
7316;SDS011;3699;51.462;6.696;2023-07-31T02:39:47;13.23;;;5.27;;
7316;SDS011;3699;51.462;6.696;2023-07-31T02:42:13;10.77;;;5.40;;
7316;SDS011;3699;51.462;6.696;2023-07-31T02:44:40;13.13;;;5.83;;
7316;SDS011;3699;51.462;6.696;2023-07-31T02:47:07;17.87;;;6.47;;
7316;SDS011;3699;51.462;6.696;2023-07-31T02:49:35;10.70;;;5.00;;
7316;SDS011;3699;51.462;6.696;2023-07-31T02:52:02;11.33;;;5.20;;
7316;SDS011;3699;51.462;6.696;2023-07-31T02:54:29;13.73;;;5.10;;
7316;SDS011;3699;51.462;6.696;2023-07-31T02:56:56;14.87;;;5.60;;
7316;SDS011;3699;51.462;6.696;2023-07-31T02:59:23;14.83;;;5.20;;
7316;SDS011;3699;51.462;6.696;2023-07-31T03:01:50;10.60;;;4.87;;
7316;SDS011;3699;51.462;6.696;2023-07-31T03:04:17;12.27;;;5.23;;
7316;SDS011;3699;51.462;6.696;2023-07-31T03:06:45;11.37;;;5.57;;
7316;SDS011;3699;51.462;6.696;2023-07-31T03:09:11;14.70;;;6.30;;
7316;SDS011;3699;51.462;6.696;2023-07-31T03:11:38;18.77;;;5.77;;
7316;SDS011;3699;51.462;6.696;2023-07-31T03:14:05;12.87;;;5.57;;
7316;SDS011;3699;51.462;6.696;2023-07-31T03:16:31;13.97;;;5.73;;
7316;SDS011;3699;51.462;6.696;2023-07-31T03:18:58;18.17;;;6.73;;
7316;SDS011;3699;51.462;6.696;2023-07-31T03:21:25;12.50;;;5.23;;
7316;SDS011;3699;51.462;6.696;2023-07-31T03:23:53;11.83;;;5.17;;
7316;SDS011;3699;51.462;6.696;2023-07-31T03:26:20;16.17;;;5.53;;
7316;SDS011;3699;51.462;6.696;2023-07-31T03:28:47;16.20;;;5.73;;
7316;SDS011;3699;51.462;6.696;2023-07-31T03:31:14;14.00;;;5.13;;
7316;SDS011;3699;51.462;6.696;2023-07-31T03:33:41;17.07;;;5.40;;
7316;SDS011;3699;51.462;6.696;2023-07-31T03:36:08;12.97;;;5.83;;
7316;SDS011;3699;51.462;6.696;2023-07-31T03:38:34;19.37;;;6.40;;
7316;SDS011;3699;51.462;6.696;2023-07-31T03:41:03;12.87;;;5.60;;
7316;SDS011;3699;51.462;6.696;2023-07-31T03:43:31;15.60;;;5.47;;
7316;SDS011;3699;51.462;6.696;2023-07-31T03:45:58;15.07;;;5.93;;
7316;SDS011;3699;51.462;6.696;2023-07-31T03:48:25;21.97;;;6.27;;
7316;SDS011;3699;51.462;6.696;2023-07-31T03:50:52;13.87;;;6.30;;
7316;SDS011;3699;51.462;6.696;2023-07-31T03:53:19;13.27;;;5.17;;
7316;SDS011;3699;51.462;6.696;2023-07-31T03:55:46;16.00;;;4.83;;
7316;SDS011;3699;51.462;6.696;2023-07-31T03:58:14;12.07;;;5.53;;
7316;SDS011;3699;51.462;6.696;2023-07-31T04:00:40;11.60;;;5.70;;
7316;SDS011;3699;51.462;6.696;2023-07-31T04:03:07;12.60;;;5.83;;
7316;SDS011;3699;51.462;6.696;2023-07-31T04:05:37;13.57;;;5.20;;
7316;SDS011;3699;51.462;6.696;2023-07-31T04:08:04;11.80;;;4.50;;
7316;SDS011;3699;51.462;6.696;2023-07-31T04:10:31;14.87;;;6.03;;
7316;SDS011;3699;51.462;6.696;2023-07-31T04:12:58;10.90;;;5.37;;
7316;SDS011;3699;51.462;6.696;2023-07-31T04:15:26;11.33;;;5.30;;
7316;SDS011;3699;51.462;6.696;2023-07-31T04:17:53;13.83;;;6.63;;
7316;SDS011;3699;51.462;6.696;2023-07-31T04:20:20;11.20;;;5.60;;
7316;SDS011;3699;51.462;6.696;2023-07-31T04:22:46;15.23;;;5.30;;
7316;SDS011;3699;51.462;6.696;2023-07-31T04:25:14;12.97;;;5.77;;
7316;SDS011;3699;51.462;6.696;2023-07-31T04:27:41;12.90;;;6.23;;
7316;SDS011;3699;51.462;6.696;2023-07-31T04:30:08;8.57;;;5.07;;
7316;SDS011;3699;51.462;6.696;2023-07-31T04:32:36;12.63;;;5.20;;
7316;SDS011;3699;51.462;6.696;2023-07-31T04:35:03;12.93;;;5.57;;
7316;SDS011;3699;51.462;6.696;2023-07-31T04:37:30;12.83;;;5.03;;
7316;SDS011;3699;51.462;6.696;2023-07-31T04:39:57;14.13;;;6.30;;
7316;SDS011;3699;51.462;6.696;2023-07-31T04:42:24;12.47;;;5.00;;
7316;SDS011;3699;51.462;6.696;2023-07-31T04:44:51;12.47;;;5.60;;
7316;SDS011;3699;51.462;6.696;2023-07-31T04:47:18;15.23;;;5.50;;
7316;SDS011;3699;51.462;6.696;2023-07-31T04:49:46;10.97;;;5.20;;
7316;SDS011;3699;51.462;6.696;2023-07-31T04:52:13;9.77;;;5.23;;
7316;SDS011;3699;51.462;6.696;2023-07-31T04:54:40;10.67;;;5.33;;
7316;SDS011;3699;51.462;6.696;2023-07-31T04:57:06;11.40;;;5.57;;
7316;SDS011;3699;51.462;6.696;2023-07-31T04:59:33;12.40;;;5.17;;
7316;SDS011;3699;51.462;6.696;2023-07-31T05:02:00;11.20;;;5.60;;
7316;SDS011;3699;51.462;6.696;2023-07-31T05:04:27;13.87;;;5.90;;
7316;SDS011;3699;51.462;6.696;2023-07-31T05:06:55;12.03;;;5.70;;
7316;SDS011;3699;51.462;6.696;2023-07-31T05:09:21;14.23;;;5.87;;
7316;SDS011;3699;51.462;6.696;2023-07-31T05:11:48;19.30;;;6.87;;
7316;SDS011;3699;51.462;6.696;2023-07-31T05:14:15;9.50;;;5.10;;
7316;SDS011;3699;51.462;6.696;2023-07-31T05:16:42;9.17;;;5.60;;
7316;SDS011;3699;51.462;6.696;2023-07-31T05:19:08;10.47;;;5.90;;
7316;SDS011;3699;51.462;6.696;2023-07-31T05:21:35;10.50;;;5.90;;
7316;SDS011;3699;51.462;6.696;2023-07-31T05:24:04;9.27;;;5.47;;
7316;SDS011;3699;51.462;6.696;2023-07-31T05:26:31;14.23;;;6.40;;
7316;SDS011;3699;51.462;6.696;2023-07-31T05:28:57;9.10;;;5.23;;
7316;SDS011;3699;51.462;6.696;2023-07-31T05:31:24;8.33;;;4.83;;
7316;SDS011;3699;51.462;6.696;2023-07-31T05:33:51;13.00;;;5.97;;
7316;SDS011;3699;51.462;6.696;2023-07-31T05:36:17;12.63;;;5.53;;
7316;SDS011;3699;51.462;6.696;2023-07-31T05:38:44;15.13;;;6.20;;
7316;SDS011;3699;51.462;6.696;2023-07-31T05:41:12;10.10;;;5.57;;
7316;SDS011;3699;51.462;6.696;2023-07-31T05:43:39;9.03;;;5.27;;
7316;SDS011;3699;51.462;6.696;2023-07-31T05:46:06;9.17;;;5.40;;
7316;SDS011;3699;51.462;6.696;2023-07-31T05:48:34;8.87;;;5.63;;
7316;SDS011;3699;51.462;6.696;2023-07-31T05:51:00;13.37;;;5.80;;
7316;SDS011;3699;51.462;6.696;2023-07-31T05:53:28;11.60;;;6.03;;
7316;SDS011;3699;51.462;6.696;2023-07-31T05:55:55;8.47;;;5.73;;
7316;SDS011;3699;51.462;6.696;2023-07-31T05:58:23;17.37;;;5.87;;
7316;SDS011;3699;51.462;6.696;2023-07-31T06:00:49;14.43;;;5.87;;
7316;SDS011;3699;51.462;6.696;2023-07-31T06:03:16;10.00;;;6.27;;
7316;SDS011;3699;51.462;6.696;2023-07-31T06:05:43;10.77;;;5.77;;
7316;SDS011;3699;51.462;6.696;2023-07-31T06:08:10;8.53;;;5.30;;
7316;SDS011;3699;51.462;6.696;2023-07-31T06:10:36;9.80;;;5.77;;
7316;SDS011;3699;51.462;6.696;2023-07-31T06:13:03;12.93;;;6.23;;
7316;SDS011;3699;51.462;6.696;2023-07-31T06:15:31;9.53;;;5.70;;
7316;SDS011;3699;51.462;6.696;2023-07-31T06:17:58;7.17;;;5.00;;
7316;SDS011;3699;51.462;6.696;2023-07-31T06:20:27;9.73;;;5.73;;
7316;SDS011;3699;51.462;6.696;2023-07-31T06:22:54;11.10;;;5.93;;
7316;SDS011;3699;51.462;6.696;2023-07-31T06:25:20;13.10;;;6.77;;
7316;SDS011;3699;51.462;6.696;2023-07-31T06:27:47;11.07;;;6.30;;
7316;SDS011;3699;51.462;6.696;2023-07-31T06:30:14;12.80;;;5.87;;
7316;SDS011;3699;51.462;6.696;2023-07-31T06:32:42;9.77;;;5.70;;
7316;SDS011;3699;51.462;6.696;2023-07-31T06:35:09;6.93;;;5.20;;
7316;SDS011;3699;51.462;6.696;2023-07-31T06:37:35;8.13;;;5.10;;
7316;SDS011;3699;51.462;6.696;2023-07-31T06:40:05;8.27;;;5.70;;
7316;SDS011;3699;51.462;6.696;2023-07-31T06:42:33;9.43;;;4.93;;
7316;SDS011;3699;51.462;6.696;2023-07-31T06:45:01;9.30;;;5.97;;
7316;SDS011;3699;51.462;6.696;2023-07-31T06:47:27;9.00;;;5.30;;
7316;SDS011;3699;51.462;6.696;2023-07-31T06:49:56;9.47;;;5.10;;
7316;SDS011;3699;51.462;6.696;2023-07-31T06:52:23;6.10;;;5.20;;
7316;SDS011;3699;51.462;6.696;2023-07-31T06:55:00;6.47;;;4.53;;
7316;SDS011;3699;51.462;6.696;2023-07-31T06:57:28;8.93;;;5.50;;
7316;SDS011;3699;51.462;6.696;2023-07-31T06:59:55;8.27;;;4.90;;
7316;SDS011;3699;51.462;6.696;2023-07-31T07:02:22;8.80;;;5.33;;
7316;SDS011;3699;51.462;6.696;2023-07-31T07:04:49;8.17;;;5.57;;
7316;SDS011;3699;51.462;6.696;2023-07-31T07:07:18;7.53;;;5.17;;
7316;SDS011;3699;51.462;6.696;2023-07-31T07:09:45;7.70;;;5.60;;
7316;SDS011;3699;51.462;6.696;2023-07-31T07:12:12;7.40;;;5.50;;
7316;SDS011;3699;51.462;6.696;2023-07-31T07:14:39;6.70;;;4.63;;
7316;SDS011;3699;51.462;6.696;2023-07-31T07:17:06;8.07;;;5.17;;
7316;SDS011;3699;51.462;6.696;2023-07-31T07:19:32;10.97;;;5.20;;
7316;SDS011;3699;51.462;6.696;2023-07-31T07:21:59;9.40;;;5.30;;
7316;SDS011;3699;51.462;6.696;2023-07-31T07:24:28;8.77;;;5.53;;
7316;SDS011;3699;51.462;6.696;2023-07-31T07:26:55;8.07;;;5.27;;
7316;SDS011;3699;51.462;6.696;2023-07-31T07:29:22;11.03;;;5.43;;
7316;SDS011;3699;51.462;6.696;2023-07-31T07:31:48;7.87;;;5.30;;
7316;SDS011;3699;51.462;6.696;2023-07-31T07:34:16;9.73;;;4.93;;
7316;SDS011;3699;51.462;6.696;2023-07-31T07:36:43;9.63;;;5.17;;
7316;SDS011;3699;51.462;6.696;2023-07-31T07:39:10;6.40;;;4.63;;
7316;SDS011;3699;51.462;6.696;2023-07-31T07:41:38;8.87;;;4.70;;
7316;SDS011;3699;51.462;6.696;2023-07-31T07:44:05;9.50;;;4.70;;
7316;SDS011;3699;51.462;6.696;2023-07-31T07:46:32;7.67;;;4.80;;
7316;SDS011;3699;51.462;6.696;2023-07-31T07:48:59;5.73;;;4.43;;
7316;SDS011;3699;51.462;6.696;2023-07-31T07:51:26;8.73;;;4.97;;
7316;SDS011;3699;51.462;6.696;2023-07-31T07:53:55;6.40;;;4.67;;
7316;SDS011;3699;51.462;6.696;2023-07-31T07:56:24;7.40;;;4.37;;
7316;SDS011;3699;51.462;6.696;2023-07-31T07:58:52;8.63;;;4.97;;
7316;SDS011;3699;51.462;6.696;2023-07-31T08:01:19;6.47;;;3.40;;
7316;SDS011;3699;51.462;6.696;2023-07-31T08:03:46;5.23;;;4.53;;
7316;SDS011;3699;51.462;6.696;2023-07-31T08:06:14;5.73;;;3.93;;
7316;SDS011;3699;51.462;6.696;2023-07-31T08:08:42;4.17;;;3.40;;
7316;SDS011;3699;51.462;6.696;2023-07-31T08:11:09;3.33;;;2.97;;
7316;SDS011;3699;51.462;6.696;2023-07-31T08:13:36;3.80;;;3.40;;
7316;SDS011;3699;51.462;6.696;2023-07-31T08:16:04;4.33;;;3.13;;
7316;SDS011;3699;51.462;6.696;2023-07-31T08:18:31;6.27;;;2.83;;
7316;SDS011;3699;51.462;6.696;2023-07-31T08:20:58;4.97;;;3.43;;
7316;SDS011;3699;51.462;6.696;2023-07-31T08:23:25;6.93;;;3.27;;
7316;SDS011;3699;51.462;6.696;2023-07-31T08:25:52;7.03;;;4.17;;
7316;SDS011;3699;51.462;6.696;2023-07-31T08:28:18;4.57;;;3.53;;
7316;SDS011;3699;51.462;6.696;2023-07-31T08:30:45;5.10;;;3.37;;
7316;SDS011;3699;51.462;6.696;2023-07-31T08:33:13;4.63;;;3.40;;
7316;SDS011;3699;51.462;6.696;2023-07-31T08:35:40;5.83;;;3.80;;
7316;SDS011;3699;51.462;6.696;2023-07-31T08:38:07;7.57;;;3.57;;
7316;SDS011;3699;51.462;6.696;2023-07-31T08:40:35;5.33;;;3.40;;
7316;SDS011;3699;51.462;6.696;2023-07-31T08:43:02;5.23;;;3.80;;
7316;SDS011;3699;51.462;6.696;2023-07-31T08:45:29;4.67;;;3.40;;
7316;SDS011;3699;51.462;6.696;2023-07-31T08:47:56;4.27;;;3.40;;
7316;SDS011;3699;51.462;6.696;2023-07-31T08:50:25;7.00;;;4.03;;
7316;SDS011;3699;51.462;6.696;2023-07-31T08:52:53;5.17;;;3.50;;
7316;SDS011;3699;51.462;6.696;2023-07-31T08:55:20;7.40;;;3.43;;
7316;SDS011;3699;51.462;6.696;2023-07-31T08:57:48;5.03;;;3.17;;
7316;SDS011;3699;51.462;6.696;2023-07-31T09:00:18;5.83;;;3.27;;
7316;SDS011;3699;51.462;6.696;2023-07-31T09:02:49;5.67;;;3.90;;
7316;SDS011;3699;51.462;6.696;2023-07-31T09:05:20;4.77;;;3.77;;
7316;SDS011;3699;51.462;6.696;2023-07-31T09:07:50;6.60;;;3.80;;
7316;SDS011;3699;51.462;6.696;2023-07-31T09:10:24;6.07;;;3.77;;
7316;SDS011;3699;51.462;6.696;2023-07-31T09:12:51;4.70;;;3.67;;
7316;SDS011;3699;51.462;6.696;2023-07-31T09:15:18;4.37;;;3.67;;
7316;SDS011;3699;51.462;6.696;2023-07-31T09:17:46;6.10;;;4.00;;
7316;SDS011;3699;51.462;6.696;2023-07-31T09:20:13;7.47;;;4.03;;
7316;SDS011;3699;51.462;6.696;2023-07-31T09:22:40;4.10;;;3.70;;
7316;SDS011;3699;51.462;6.696;2023-07-31T09:25:16;7.67;;;4.07;;
7316;SDS011;3699;51.462;6.696;2023-07-31T09:27:47;6.23;;;4.40;;
7316;SDS011;3699;51.462;6.696;2023-07-31T09:30:15;5.07;;;3.63;;
7316;SDS011;3699;51.462;6.696;2023-07-31T09:32:43;5.20;;;3.37;;
7316;SDS011;3699;51.462;6.696;2023-07-31T09:35:13;5.17;;;3.13;;
7316;SDS011;3699;51.462;6.696;2023-07-31T09:37:47;4.80;;;3.50;;
7316;SDS011;3699;51.462;6.696;2023-07-31T09:40:25;3.77;;;3.37;;
7316;SDS011;3699;51.462;6.696;2023-07-31T09:42:54;4.50;;;3.10;;
7316;SDS011;3699;51.462;6.696;2023-07-31T09:45:23;6.13;;;3.60;;
7316;SDS011;3699;51.462;6.696;2023-07-31T09:47:50;3.70;;;3.17;;
7316;SDS011;3699;51.462;6.696;2023-07-31T09:50:16;3.40;;;3.10;;
7316;SDS011;3699;51.462;6.696;2023-07-31T09:52:43;4.50;;;3.20;;
7316;SDS011;3699;51.462;6.696;2023-07-31T09:55:10;4.23;;;3.37;;
7316;SDS011;3699;51.462;6.696;2023-07-31T09:57:39;3.67;;;3.17;;
7316;SDS011;3699;51.462;6.696;2023-07-31T10:00:08;6.07;;;3.63;;
7316;SDS011;3699;51.462;6.696;2023-07-31T10:02:36;4.97;;;3.57;;
7316;SDS011;3699;51.462;6.696;2023-07-31T10:05:04;4.57;;;3.37;;
7316;SDS011;3699;51.462;6.696;2023-07-31T10:07:34;4.50;;;2.87;;
7316;SDS011;3699;51.462;6.696;2023-07-31T10:10:03;3.13;;;2.83;;
7316;SDS011;3699;51.462;6.696;2023-07-31T10:12:31;4.07;;;3.40;;
7316;SDS011;3699;51.462;6.696;2023-07-31T10:15:02;3.33;;;2.90;;
7316;SDS011;3699;51.462;6.696;2023-07-31T10:17:30;4.97;;;3.50;;
7316;SDS011;3699;51.462;6.696;2023-07-31T10:19:57;4.33;;;3.93;;
7316;SDS011;3699;51.462;6.696;2023-07-31T10:22:26;5.03;;;3.13;;
7316;SDS011;3699;51.462;6.696;2023-07-31T10:24:54;4.27;;;3.80;;
7316;SDS011;3699;51.462;6.696;2023-07-31T10:27:23;5.83;;;3.33;;
7316;SDS011;3699;51.462;6.696;2023-07-31T10:29:50;7.00;;;3.83;;
7316;SDS011;3699;51.462;6.696;2023-07-31T10:32:21;3.87;;;3.43;;
7316;SDS011;3699;51.462;6.696;2023-07-31T10:34:50;4.43;;;3.40;;
7316;SDS011;3699;51.462;6.696;2023-07-31T10:37:24;4.33;;;3.70;;
7316;SDS011;3699;51.462;6.696;2023-07-31T10:39:55;4.17;;;3.13;;
7316;SDS011;3699;51.462;6.696;2023-07-31T10:42:29;8.20;;;3.87;;
7316;SDS011;3699;51.462;6.696;2023-07-31T10:44:58;3.97;;;3.33;;
7316;SDS011;3699;51.462;6.696;2023-07-31T10:47:27;4.80;;;3.30;;
7316;SDS011;3699;51.462;6.696;2023-07-31T10:52:39;4.50;;;3.67;;
7316;SDS011;3699;51.462;6.696;2023-07-31T10:55:25;5.40;;;3.47;;
7316;SDS011;3699;51.462;6.696;2023-07-31T10:57:54;5.20;;;3.50;;
7316;SDS011;3699;51.462;6.696;2023-07-31T11:00:23;5.03;;;4.03;;
7316;SDS011;3699;51.462;6.696;2023-07-31T11:03:00;6.47;;;3.73;;
7316;SDS011;3699;51.462;6.696;2023-07-31T11:05:44;4.50;;;3.20;;
7316;SDS011;3699;51.462;6.696;2023-07-31T11:08:13;7.60;;;4.77;;
7316;SDS011;3699;51.462;6.696;2023-07-31T11:10:41;6.83;;;3.77;;
7316;SDS011;3699;51.462;6.696;2023-07-31T11:13:08;8.63;;;4.40;;
7316;SDS011;3699;51.462;6.696;2023-07-31T11:15:43;6.53;;;3.47;;
7316;SDS011;3699;51.462;6.696;2023-07-31T11:18:11;6.10;;;3.80;;
7316;SDS011;3699;51.462;6.696;2023-07-31T11:20:38;7.77;;;3.93;;
7316;SDS011;3699;51.462;6.696;2023-07-31T11:23:06;6.00;;;4.00;;
7316;SDS011;3699;51.462;6.696;2023-07-31T11:25:34;4.97;;;3.37;;
7316;SDS011;3699;51.462;6.696;2023-07-31T11:28:02;6.93;;;3.40;;
7316;SDS011;3699;51.462;6.696;2023-07-31T11:30:36;7.67;;;3.97;;
7316;SDS011;3699;51.462;6.696;2023-07-31T11:33:10;11.03;;;4.80;;
7316;SDS011;3699;51.462;6.696;2023-07-31T11:35:41;9.27;;;5.63;;
7316;SDS011;3699;51.462;6.696;2023-07-31T11:38:10;4.83;;;3.80;;
7316;SDS011;3699;51.462;6.696;2023-07-31T11:40:40;4.73;;;2.83;;
7316;SDS011;3699;51.462;6.696;2023-07-31T11:43:08;7.50;;;3.40;;
7316;SDS011;3699;51.462;6.696;2023-07-31T11:45:36;4.77;;;3.33;;
7316;SDS011;3699;51.462;6.696;2023-07-31T11:48:05;3.00;;;2.60;;
7316;SDS011;3699;51.462;6.696;2023-07-31T11:50:34;4.00;;;3.60;;
7316;SDS011;3699;51.462;6.696;2023-07-31T11:53:03;4.17;;;3.33;;
7316;SDS011;3699;51.462;6.696;2023-07-31T11:55:35;6.60;;;3.30;;
7316;SDS011;3699;51.462;6.696;2023-07-31T11:58:02;3.47;;;3.17;;
7316;SDS011;3699;51.462;6.696;2023-07-31T12:00:29;3.63;;;2.97;;
7316;SDS011;3699;51.462;6.696;2023-07-31T12:02:56;6.00;;;3.50;;
7316;SDS011;3699;51.462;6.696;2023-07-31T12:05:23;6.07;;;3.40;;
7316;SDS011;3699;51.462;6.696;2023-07-31T12:07:52;3.53;;;3.20;;
7316;SDS011;3699;51.462;6.696;2023-07-31T12:13:40;3.77;;;3.27;;
7316;SDS011;3699;51.462;6.696;2023-07-31T12:16:07;3.57;;;3.27;;
7316;SDS011;3699;51.462;6.696;2023-07-31T12:18:34;8.63;;;3.50;;
7316;SDS011;3699;51.462;6.696;2023-07-31T12:21:04;4.07;;;3.43;;
7316;SDS011;3699;51.462;6.696;2023-07-31T12:23:33;5.93;;;4.07;;
7316;SDS011;3699;51.462;6.696;2023-07-31T12:26:02;7.43;;;4.40;;
7316;SDS011;3699;51.462;6.696;2023-07-31T12:28:29;5.53;;;3.30;;
7316;SDS011;3699;51.462;6.696;2023-07-31T12:30:57;5.40;;;3.40;;
7316;SDS011;3699;51.462;6.696;2023-07-31T12:36:22;3.53;;;2.77;;
7316;SDS011;3699;51.462;6.696;2023-07-31T12:38:51;3.70;;;2.70;;
7316;SDS011;3699;51.462;6.696;2023-07-31T12:41:18;3.43;;;2.83;;
7316;SDS011;3699;51.462;6.696;2023-07-31T12:43:45;6.17;;;3.07;;
7316;SDS011;3699;51.462;6.696;2023-07-31T12:46:12;2.83;;;2.37;;
7316;SDS011;3699;51.462;6.696;2023-07-31T12:48:40;3.07;;;2.70;;
7316;SDS011;3699;51.462;6.696;2023-07-31T12:51:07;4.37;;;2.80;;
7316;SDS011;3699;51.462;6.696;2023-07-31T12:53:35;7.30;;;3.00;;
7316;SDS011;3699;51.462;6.696;2023-07-31T12:56:03;3.33;;;2.80;;
7316;SDS011;3699;51.462;6.696;2023-07-31T12:58:30;3.27;;;2.80;;
7316;SDS011;3699;51.462;6.696;2023-07-31T13:00:57;3.90;;;2.70;;
7316;SDS011;3699;51.462;6.696;2023-07-31T13:03:23;3.33;;;3.00;;
7316;SDS011;3699;51.462;6.696;2023-07-31T13:05:50;3.50;;;2.80;;
7316;SDS011;3699;51.462;6.696;2023-07-31T13:08:17;5.07;;;3.00;;
7316;SDS011;3699;51.462;6.696;2023-07-31T13:10:44;3.43;;;2.97;;
7316;SDS011;3699;51.462;6.696;2023-07-31T13:13:12;5.13;;;3.10;;
7316;SDS011;3699;51.462;6.696;2023-07-31T13:15:39;5.30;;;3.60;;
7316;SDS011;3699;51.462;6.696;2023-07-31T13:18:06;5.50;;;3.20;;
7316;SDS011;3699;51.462;6.696;2023-07-31T13:20:33;4.33;;;3.17;;
7316;SDS011;3699;51.462;6.696;2023-07-31T13:22:59;4.23;;;3.10;;
7316;SDS011;3699;51.462;6.696;2023-07-31T13:25:26;3.93;;;3.17;;
7316;SDS011;3699;51.462;6.696;2023-07-31T13:27:53;5.43;;;3.67;;
7316;SDS011;3699;51.462;6.696;2023-07-31T13:30:21;5.00;;;3.53;;
7316;SDS011;3699;51.462;6.696;2023-07-31T13:32:48;8.30;;;3.87;;
7316;SDS011;3699;51.462;6.696;2023-07-31T13:35:15;4.83;;;3.50;;
7316;SDS011;3699;51.462;6.696;2023-07-31T13:37:41;5.10;;;3.70;;
7316;SDS011;3699;51.462;6.696;2023-07-31T13:40:09;6.73;;;3.60;;
7316;SDS011;3699;51.462;6.696;2023-07-31T13:42:36;4.27;;;3.47;;
7316;SDS011;3699;51.462;6.696;2023-07-31T13:45:03;4.00;;;3.57;;
7316;SDS011;3699;51.462;6.696;2023-07-31T13:47:32;4.43;;;3.90;;
7316;SDS011;3699;51.462;6.696;2023-07-31T13:49:59;4.40;;;3.67;;
7316;SDS011;3699;51.462;6.696;2023-07-31T13:52:26;5.97;;;3.80;;
7316;SDS011;3699;51.462;6.696;2023-07-31T13:54:52;7.40;;;3.80;;
7316;SDS011;3699;51.462;6.696;2023-07-31T13:57:19;5.10;;;3.60;;
7316;SDS011;3699;51.462;6.696;2023-07-31T13:59:46;5.13;;;3.77;;
7316;SDS011;3699;51.462;6.696;2023-07-31T14:02:12;6.10;;;4.30;;
7316;SDS011;3699;51.462;6.696;2023-07-31T14:04:48;4.47;;;4.03;;
7316;SDS011;3699;51.462;6.696;2023-07-31T14:07:15;6.10;;;3.67;;
7316;SDS011;3699;51.462;6.696;2023-07-31T14:09:43;3.67;;;3.30;;
7316;SDS011;3699;51.462;6.696;2023-07-31T14:12:10;14.60;;;5.27;;
7316;SDS011;3699;51.462;6.696;2023-07-31T14:14:37;5.63;;;3.37;;
7316;SDS011;3699;51.462;6.696;2023-07-31T14:17:04;4.83;;;3.67;;
7316;SDS011;3699;51.462;6.696;2023-07-31T14:19:31;4.63;;;3.77;;
7316;SDS011;3699;51.462;6.696;2023-07-31T14:21:59;5.37;;;3.90;;
7316;SDS011;3699;51.462;6.696;2023-07-31T14:24:26;6.87;;;3.97;;
7316;SDS011;3699;51.462;6.696;2023-07-31T14:26:53;5.40;;;4.10;;
7316;SDS011;3699;51.462;6.696;2023-07-31T14:29:20;7.10;;;4.23;;
7316;SDS011;3699;51.462;6.696;2023-07-31T14:31:46;7.37;;;4.50;;
7316;SDS011;3699;51.462;6.696;2023-07-31T14:34:13;5.90;;;4.37;;
7316;SDS011;3699;51.462;6.696;2023-07-31T14:36:40;6.57;;;4.10;;
7316;SDS011;3699;51.462;6.696;2023-07-31T14:39:09;6.37;;;4.17;;
7316;SDS011;3699;51.462;6.696;2023-07-31T14:41:35;6.27;;;4.47;;
7316;SDS011;3699;51.462;6.696;2023-07-31T14:44:04;5.50;;;4.03;;
7316;SDS011;3699;51.462;6.696;2023-07-31T14:46:31;6.70;;;4.80;;
7316;SDS011;3699;51.462;6.696;2023-07-31T14:48:58;9.40;;;4.63;;
7316;SDS011;3699;51.462;6.696;2023-07-31T14:51:24;7.77;;;4.23;;
7316;SDS011;3699;51.462;6.696;2023-07-31T14:53:51;7.27;;;4.47;;
7316;SDS011;3699;51.462;6.696;2023-07-31T14:56:19;4.43;;;3.90;;
7316;SDS011;3699;51.462;6.696;2023-07-31T14:58:46;8.93;;;4.63;;
7316;SDS011;3699;51.462;6.696;2023-07-31T15:01:13;10.67;;;5.20;;
7316;SDS011;3699;51.462;6.696;2023-07-31T15:03:39;8.87;;;4.53;;
7316;SDS011;3699;51.462;6.696;2023-07-31T15:06:06;5.80;;;4.37;;
7316;SDS011;3699;51.462;6.696;2023-07-31T15:08:33;6.90;;;4.20;;
7316;SDS011;3699;51.462;6.696;2023-07-31T15:11:01;8.10;;;4.37;;
7316;SDS011;3699;51.462;6.696;2023-07-31T15:13:29;7.07;;;4.50;;
7316;SDS011;3699;51.462;6.696;2023-07-31T15:15:56;5.83;;;4.83;;
7316;SDS011;3699;51.462;6.696;2023-07-31T15:18:23;8.13;;;4.77;;
7316;SDS011;3699;51.462;6.696;2023-07-31T15:20:50;5.80;;;4.60;;
7316;SDS011;3699;51.462;6.696;2023-07-31T15:23:16;7.73;;;4.40;;